sensor_id;sensor_type;location;lat;lon;timestamp;pressure;altitude;pressure_sealevel;temperature;humidity
4576;BME280;2300;51.874;8.430;2023-06-26T00:00:19;100487.09;;;21.02;83.77
4576;BME280;2300;51.874;8.430;2023-06-26T00:02:45;100468.88;;;20.91;83.82
4576;BME280;2300;51.874;8.430;2023-06-26T00:05:12;100491.19;;;20.91;84.56
4576;BME280;2300;51.874;8.430;2023-06-26T00:07:41;100441.78;;;20.45;84.98
4576;BME280;2300;51.874;8.430;2023-06-26T00:10:08;100462.38;;;20.63;85.57
4576;BME280;2300;51.874;8.430;2023-06-26T00:12:35;100487.22;;;20.78;84.91
4576;BME280;2300;51.874;8.430;2023-06-26T00:15:02;100487.03;;;20.75;85.33
4576;BME280;2300;51.874;8.430;2023-06-26T00:17:28;100470.53;;;20.60;85.78
4576;BME280;2300;51.874;8.430;2023-06-26T00:19:55;100474.63;;;20.48;86.14
4576;BME280;2300;51.874;8.430;2023-06-26T00:22:22;100473.94;;;20.57;85.95
4576;BME280;2300;51.874;8.430;2023-06-26T00:24:50;100467.91;;;20.49;85.79
4576;BME280;2300;51.874;8.430;2023-06-26T00:27:17;100473.28;;;20.46;86.51
4576;BME280;2300;51.874;8.430;2023-06-26T00:29:44;100453.22;;;20.25;86.66
4576;BME280;2300;51.874;8.430;2023-06-26T00:32:11;100470.09;;;20.34;86.64
4576;BME280;2300;51.874;8.430;2023-06-26T00:34:39;100438.22;;;20.21;86.37
4576;BME280;2300;51.874;8.430;2023-06-26T00:37:05;100424.44;;;20.11;86.68
4576;BME280;2300;51.874;8.430;2023-06-26T00:39:32;100426.09;;;20.12;86.64
4576;BME280;2300;51.874;8.430;2023-06-26T00:42:01;100397.44;;;19.93;86.36
4576;BME280;2300;51.874;8.430;2023-06-26T00:44:28;100464.72;;;20.37;86.13
4576;BME280;2300;51.874;8.430;2023-06-26T00:46:54;100438.53;;;20.01;86.87
4576;BME280;2300;51.874;8.430;2023-06-26T00:49:22;100427.84;;;20.08;86.52
4576;BME280;2300;51.874;8.430;2023-06-26T00:51:49;100458.72;;;20.30;86.16
4576;BME280;2300;51.874;8.430;2023-06-26T00:54:16;100442.69;;;20.03;86.42
4576;BME280;2300;51.874;8.430;2023-06-26T00:56:45;100458.88;;;20.20;86.55
4576;BME280;2300;51.874;8.430;2023-06-26T00:59:14;100416.63;;;19.94;86.71
4576;BME280;2300;51.874;8.430;2023-06-26T01:01:41;100426.88;;;19.99;86.46
4576;BME280;2300;51.874;8.430;2023-06-26T01:04:08;100453.59;;;20.19;86.09
4576;BME280;2300;51.874;8.430;2023-06-26T01:06:43;100437.31;;;20.07;86.40
4576;BME280;2300;51.874;8.430;2023-06-26T01:09:15;100428.69;;;20.08;85.65
4576;BME280;2300;51.874;8.430;2023-06-26T01:11:42;100412.63;;;19.82;86.17
4576;BME280;2300;51.874;8.430;2023-06-26T01:14:09;100415.34;;;19.87;86.63
4576;BME280;2300;51.874;8.430;2023-06-26T01:16:37;100428.47;;;20.05;86.42
4576;BME280;2300;51.874;8.430;2023-06-26T01:19:10;100430.09;;;20.06;85.87
4576;BME280;2300;51.874;8.430;2023-06-26T01:21:42;100439.00;;;20.08;85.63
4576;BME280;2300;51.874;8.430;2023-06-26T01:24:16;100432.28;;;20.09;85.30
4576;BME280;2300;51.874;8.430;2023-06-26T01:26:48;100430.78;;;19.98;85.94
4576;BME280;2300;51.874;8.430;2023-06-26T01:29:16;100432.13;;;20.00;85.83
4576;BME280;2300;51.874;8.430;2023-06-26T01:31:45;100410.81;;;19.91;85.93
4576;BME280;2300;51.874;8.430;2023-06-26T01:34:14;100421.53;;;19.84;86.33
4576;BME280;2300;51.874;8.430;2023-06-26T01:36:41;100389.63;;;19.52;86.54
4576;BME280;2300;51.874;8.430;2023-06-26T01:39:08;100374.94;;;19.47;87.34
4576;BME280;2300;51.874;8.430;2023-06-26T01:41:35;100405.53;;;19.70;87.38
4576;BME280;2300;51.874;8.430;2023-06-26T01:44:11;100385.72;;;19.53;87.22
4576;BME280;2300;51.874;8.430;2023-06-26T01:46:51;100389.22;;;19.59;87.02
4576;BME280;2300;51.874;8.430;2023-06-26T01:49:26;100406.16;;;19.67;87.47
4576;BME280;2300;51.874;8.430;2023-06-26T01:52:00;100369.66;;;19.45;87.48
4576;BME280;2300;51.874;8.430;2023-06-26T01:54:30;100371.72;;;19.58;86.56
4576;BME280;2300;51.874;8.430;2023-06-26T01:57:00;100358.06;;;19.38;87.07
4576;BME280;2300;51.874;8.430;2023-06-26T01:59:31;100384.19;;;19.61;86.60
4576;BME280;2300;51.874;8.430;2023-06-26T02:02:00;100321.28;;;19.22;86.77
4576;BME280;2300;51.874;8.430;2023-06-26T02:04:27;100367.41;;;19.47;86.84
4576;BME280;2300;51.874;8.430;2023-06-26T02:06:53;100341.50;;;19.28;86.78
4576;BME280;2300;51.874;8.430;2023-06-26T02:09:20;100338.78;;;19.23;87.26
4576;BME280;2300;51.874;8.430;2023-06-26T02:11:47;100365.69;;;19.51;86.53
4576;BME280;2300;51.874;8.430;2023-06-26T02:14:13;100366.94;;;19.40;86.58
4576;BME280;2300;51.874;8.430;2023-06-26T02:16:42;100328.84;;;19.17;86.80
4576;BME280;2300;51.874;8.430;2023-06-26T02:19:08;100384.13;;;19.47;87.01
4576;BME280;2300;51.874;8.430;2023-06-26T02:21:35;100372.72;;;19.44;86.84
4576;BME280;2300;51.874;8.430;2023-06-26T02:24:04;100383.22;;;19.52;86.80
4576;BME280;2300;51.874;8.430;2023-06-26T02:26:31;100374.09;;;19.46;86.91
4576;BME280;2300;51.874;8.430;2023-06-26T02:28:57;100368.38;;;19.38;86.59
4576;BME280;2300;51.874;8.430;2023-06-26T02:31:24;100373.00;;;19.47;86.37
4576;BME280;2300;51.874;8.430;2023-06-26T02:33:52;100375.16;;;19.50;86.25
4576;BME280;2300;51.874;8.430;2023-06-26T02:36:19;100342.78;;;19.17;86.01
4576;BME280;2300;51.874;8.430;2023-06-26T02:38:46;100364.94;;;19.46;86.63
4576;BME280;2300;51.874;8.430;2023-06-26T02:41:12;100353.09;;;19.35;86.20
4576;BME280;2300;51.874;8.430;2023-06-26T02:43:39;100330.59;;;19.32;85.99
4576;BME280;2300;51.874;8.430;2023-06-26T02:46:06;100314.81;;;19.03;86.38
4576;BME280;2300;51.874;8.430;2023-06-26T02:48:33;100333.13;;;19.28;86.05
4576;BME280;2300;51.874;8.430;2023-06-26T02:51:01;100323.22;;;19.22;85.91
4576;BME280;2300;51.874;8.430;2023-06-26T02:53:27;100358.13;;;19.33;86.24
4576;BME280;2300;51.874;8.430;2023-06-26T02:55:54;100330.50;;;19.18;86.30
4576;BME280;2300;51.874;8.430;2023-06-26T02:58:22;100319.28;;;19.04;85.82
4576;BME280;2300;51.874;8.430;2023-06-26T03:00:49;100349.13;;;19.41;85.81
4576;BME280;2300;51.874;8.430;2023-06-26T03:03:16;100314.53;;;19.05;85.77
4576;BME280;2300;51.874;8.430;2023-06-26T03:05:43;100332.09;;;19.24;85.61
4576;BME280;2300;51.874;8.430;2023-06-26T03:08:12;100357.84;;;19.35;86.05
4576;BME280;2300;51.874;8.430;2023-06-26T03:10:38;100317.47;;;19.13;85.60
4576;BME280;2300;51.874;8.430;2023-06-26T03:13:05;100328.78;;;18.98;86.55
4576;BME280;2300;51.874;8.430;2023-06-26T03:15:32;100349.69;;;19.19;86.39
4576;BME280;2300;51.874;8.430;2023-06-26T03:17:59;100349.91;;;19.23;86.72
4576;BME280;2300;51.874;8.430;2023-06-26T03:20:25;100327.13;;;18.97;86.60
4576;BME280;2300;51.874;8.430;2023-06-26T03:22:53;100341.75;;;19.08;86.78
4576;BME280;2300;51.874;8.430;2023-06-26T03:25:22;100308.56;;;18.93;86.69
4576;BME280;2300;51.874;8.430;2023-06-26T03:27:48;100334.50;;;19.12;86.53
4576;BME280;2300;51.874;8.430;2023-06-26T03:30:17;100312.88;;;19.04;86.38
4576;BME280;2300;51.874;8.430;2023-06-26T03:32:44;100360.47;;;19.26;87.09
4576;BME280;2300;51.874;8.430;2023-06-26T03:35:12;100357.75;;;19.21;86.53
4576;BME280;2300;51.874;8.430;2023-06-26T03:37:38;100341.75;;;19.08;86.86
4576;BME280;2300;51.874;8.430;2023-06-26T03:40:09;100330.13;;;19.06;86.88
4576;BME280;2300;51.874;8.430;2023-06-26T03:42:37;100355.34;;;19.33;86.12
4576;BME280;2300;51.874;8.430;2023-06-26T03:45:05;100352.88;;;19.32;86.01
4576;BME280;2300;51.874;8.430;2023-06-26T03:47:32;100284.00;;;19.00;85.70
4576;BME280;2300;51.874;8.430;2023-06-26T03:49:59;100345.16;;;19.47;85.55
4576;BME280;2300;51.874;8.430;2023-06-26T03:52:25;100356.50;;;19.51;85.43
4576;BME280;2300;51.874;8.430;2023-06-26T03:54:52;100361.84;;;19.47;85.42
4576;BME280;2300;51.874;8.430;2023-06-26T03:57:20;100329.56;;;19.27;86.13
4576;BME280;2300;51.874;8.430;2023-06-26T03:59:49;100342.94;;;19.44;85.73
4576;BME280;2300;51.874;8.430;2023-06-26T04:02:15;100376.28;;;19.49;86.04
4576;BME280;2300;51.874;8.430;2023-06-26T04:04:42;100367.84;;;19.54;85.77
4576;BME280;2300;51.874;8.430;2023-06-26T04:07:09;100325.88;;;19.32;85.81
4576;BME280;2300;51.874;8.430;2023-06-26T04:09:35;100322.69;;;19.39;85.21
4576;BME280;2300;51.874;8.430;2023-06-26T04:12:04;100372.94;;;19.71;84.60
4576;BME280;2300;51.874;8.430;2023-06-26T04:14:32;100300.00;;;19.32;85.41
4576;BME280;2300;51.874;8.430;2023-06-26T04:17:00;100311.19;;;19.45;84.60
4576;BME280;2300;51.874;8.430;2023-06-26T04:19:28;100368.53;;;19.89;84.82
4576;BME280;2300;51.874;8.430;2023-06-26T04:21:55;100358.03;;;19.99;84.36
4576;BME280;2300;51.874;8.430;2023-06-26T04:24:22;100346.22;;;19.89;84.09
4576;BME280;2300;51.874;8.430;2023-06-26T04:26:49;100334.09;;;19.80;83.82
4576;BME280;2300;51.874;8.430;2023-06-26T04:29:16;100351.41;;;20.14;83.86
4576;BME280;2300;51.874;8.430;2023-06-26T04:31:43;100361.25;;;20.25;83.83
4576;BME280;2300;51.874;8.430;2023-06-26T04:34:13;100327.72;;;20.11;83.73
4576;BME280;2300;51.874;8.430;2023-06-26T04:36:40;100328.75;;;20.34;83.34
4576;BME280;2300;51.874;8.430;2023-06-26T04:39:06;100277.19;;;20.18;82.94
4576;BME280;2300;51.874;8.430;2023-06-26T04:41:33;100360.16;;;20.86;82.44
4576;BME280;2300;51.874;8.430;2023-06-26T04:44:00;100370.38;;;21.04;81.94
4576;BME280;2300;51.874;8.430;2023-06-26T04:46:26;100337.13;;;21.21;80.43
4576;BME280;2300;51.874;8.430;2023-06-26T04:48:54;100325.22;;;21.43;78.38
4576;BME280;2300;51.874;8.430;2023-06-26T04:51:24;100362.22;;;21.98;79.24
4576;BME280;2300;51.874;8.430;2023-06-26T04:53:52;100347.59;;;22.46;77.92
4576;BME280;2300;51.874;8.430;2023-06-26T04:56:19;100367.16;;;22.90;76.90
4576;BME280;2300;51.874;8.430;2023-06-26T04:58:45;100359.09;;;22.97;73.76
4576;BME280;2300;51.874;8.430;2023-06-26T05:01:12;100352.75;;;23.14;73.30
4576;BME280;2300;51.874;8.430;2023-06-26T05:03:40;100370.81;;;23.39;71.36
4576;BME280;2300;51.874;8.430;2023-06-26T05:06:06;100363.66;;;23.24;70.83
4576;BME280;2300;51.874;8.430;2023-06-26T05:08:37;100363.75;;;23.41;70.52
4576;BME280;2300;51.874;8.430;2023-06-26T05:11:12;100363.81;;;24.02;69.31
4576;BME280;2300;51.874;8.430;2023-06-26T05:13:38;100343.16;;;23.89;69.22
4576;BME280;2300;51.874;8.430;2023-06-26T05:16:05;100366.13;;;24.34;68.99
4576;BME280;2300;51.874;8.430;2023-06-26T05:18:34;100367.53;;;24.57;68.85
4576;BME280;2300;51.874;8.430;2023-06-26T05:21:02;100368.66;;;25.29;66.73
4576;BME280;2300;51.874;8.430;2023-06-26T05:23:30;100351.19;;;25.73;65.77
4576;BME280;2300;51.874;8.430;2023-06-26T05:25:59;100375.56;;;26.31;63.73
4576;BME280;2300;51.874;8.430;2023-06-26T05:28:27;100379.13;;;27.31;61.07
4576;BME280;2300;51.874;8.430;2023-06-26T05:30:56;100370.94;;;28.30;60.21
4576;BME280;2300;51.874;8.430;2023-06-26T05:33:25;100373.28;;;28.83;57.30
4576;BME280;2300;51.874;8.430;2023-06-26T05:35:53;100377.91;;;29.86;56.33
4576;BME280;2300;51.874;8.430;2023-06-26T05:38:20;100367.22;;;30.72;53.79
4576;BME280;2300;51.874;8.430;2023-06-26T05:40:47;100373.38;;;31.19;52.28
4576;BME280;2300;51.874;8.430;2023-06-26T05:43:18;100389.56;;;31.94;51.40
4576;BME280;2300;51.874;8.430;2023-06-26T05:45:48;100377.56;;;31.78;49.92
4576;BME280;2300;51.874;8.430;2023-06-26T05:48:15;100374.41;;;31.83;49.80
4576;BME280;2300;51.874;8.430;2023-06-26T05:50:42;100349.94;;;32.31;48.92
4576;BME280;2300;51.874;8.430;2023-06-26T05:53:10;100364.50;;;32.00;48.44
4576;BME280;2300;51.874;8.430;2023-06-26T05:55:38;100375.72;;;32.49;48.01
4576;BME280;2300;51.874;8.430;2023-06-26T05:58:06;100367.78;;;32.32;48.20
4576;BME280;2300;51.874;8.430;2023-06-26T06:00:36;100359.41;;;32.42;47.65
4576;BME280;2300;51.874;8.430;2023-06-26T06:03:04;100348.63;;;31.95;48.11
4576;BME280;2300;51.874;8.430;2023-06-26T06:05:32;100378.63;;;32.56;47.76
4576;BME280;2300;51.874;8.430;2023-06-26T06:08:00;100344.59;;;33.00;47.88
4576;BME280;2300;51.874;8.430;2023-06-26T06:10:26;100355.03;;;32.52;46.96
4576;BME280;2300;51.874;8.430;2023-06-26T06:12:53;100386.72;;;32.54;47.81
4576;BME280;2300;51.874;8.430;2023-06-26T06:15:20;100378.81;;;32.37;47.84
4576;BME280;2300;51.874;8.430;2023-06-26T06:17:48;100374.72;;;31.06;50.18
4576;BME280;2300;51.874;8.430;2023-06-26T06:20:15;100382.53;;;30.67;50.19
4576;BME280;2300;51.874;8.430;2023-06-26T06:22:42;100353.38;;;30.09;51.45
4576;BME280;2300;51.874;8.430;2023-06-26T06:25:09;100380.63;;;30.55;50.75
4576;BME280;2300;51.874;8.430;2023-06-26T06:27:36;100386.81;;;30.80;49.61
4576;BME280;2300;51.874;8.430;2023-06-26T06:30:03;100374.69;;;31.25;49.66
4576;BME280;2300;51.874;8.430;2023-06-26T06:32:30;100376.66;;;31.48;50.55
4576;BME280;2300;51.874;8.430;2023-06-26T06:35:01;100366.16;;;31.25;50.82
4576;BME280;2300;51.874;8.430;2023-06-26T06:37:34;100384.34;;;31.70;51.05
4576;BME280;2300;51.874;8.430;2023-06-26T06:40:01;100400.28;;;32.08;50.16
4576;BME280;2300;51.874;8.430;2023-06-26T06:42:31;100397.44;;;31.78;49.93
4576;BME280;2300;51.874;8.430;2023-06-26T06:44:59;100407.19;;;31.31;50.40
4576;BME280;2300;51.874;8.430;2023-06-26T06:47:26;100418.66;;;31.38;51.69
4576;BME280;2300;51.874;8.430;2023-06-26T06:49:52;100408.78;;;31.29;51.39
4576;BME280;2300;51.874;8.430;2023-06-26T06:52:22;100429.59;;;31.63;51.52
4576;BME280;2300;51.874;8.430;2023-06-26T06:54:54;100443.34;;;31.15;52.57
4576;BME280;2300;51.874;8.430;2023-06-26T06:57:24;100427.03;;;30.12;53.77
4576;BME280;2300;51.874;8.430;2023-06-26T06:59:51;100345.22;;;28.19;55.71
4576;BME280;2300;51.874;8.430;2023-06-26T07:02:18;100433.59;;;27.35;58.77
4576;BME280;2300;51.874;8.430;2023-06-26T07:04:45;100399.03;;;26.15;60.71
4576;BME280;2300;51.874;8.430;2023-06-26T07:07:12;100437.16;;;26.66;61.26
4576;BME280;2300;51.874;8.430;2023-06-26T07:09:43;100415.06;;;26.56;62.25
4576;BME280;2300;51.874;8.430;2023-06-26T07:12:10;100434.47;;;27.02;61.00
4576;BME280;2300;51.874;8.430;2023-06-26T07:14:37;100432.41;;;27.23;61.50
4576;BME280;2300;51.874;8.430;2023-06-26T07:17:05;100451.84;;;27.16;60.87
4576;BME280;2300;51.874;8.430;2023-06-26T07:19:31;100411.88;;;26.90;62.42
4576;BME280;2300;51.874;8.430;2023-06-26T07:22:00;100460.25;;;27.25;62.12
4576;BME280;2300;51.874;8.430;2023-06-26T07:24:26;100427.53;;;27.12;62.08
4576;BME280;2300;51.874;8.430;2023-06-26T07:26:55;100452.72;;;27.41;61.71
4576;BME280;2300;51.874;8.430;2023-06-26T07:29:22;100454.03;;;27.44;62.20
4576;BME280;2300;51.874;8.430;2023-06-26T07:31:49;100446.88;;;26.89;61.75
4576;BME280;2300;51.874;8.430;2023-06-26T07:34:17;100448.72;;;26.73;62.05
4576;BME280;2300;51.874;8.430;2023-06-26T07:36:44;100445.00;;;26.93;63.03
4576;BME280;2300;51.874;8.430;2023-06-26T07:39:11;100449.72;;;27.01;62.92
4576;BME280;2300;51.874;8.430;2023-06-26T07:41:38;100461.09;;;27.26;62.50
4576;BME280;2300;51.874;8.430;2023-06-26T07:44:07;100451.78;;;27.37;61.85
4576;BME280;2300;51.874;8.430;2023-06-26T07:46:34;100439.88;;;27.07;61.92
4576;BME280;2300;51.874;8.430;2023-06-26T07:49:01;100450.97;;;26.92;63.12
4576;BME280;2300;51.874;8.430;2023-06-26T07:51:28;100448.34;;;26.54;63.85
4576;BME280;2300;51.874;8.430;2023-06-26T07:53:54;100442.94;;;26.28;64.54
4576;BME280;2300;51.874;8.430;2023-06-26T07:56:21;100411.59;;;25.67;64.73
4576;BME280;2300;51.874;8.430;2023-06-26T07:58:48;100424.91;;;25.79;65.91
4576;BME280;2300;51.874;8.430;2023-06-26T08:01:16;100488.44;;;25.80;65.93
4576;BME280;2300;51.874;8.430;2023-06-26T08:03:43;100494.72;;;25.30;67.87
4576;BME280;2300;51.874;8.430;2023-06-26T08:06:13;100488.00;;;25.14;69.08
4576;BME280;2300;51.874;8.430;2023-06-26T08:08:41;100504.56;;;25.07;69.19
4576;BME280;2300;51.874;8.430;2023-06-26T08:11:08;100512.31;;;24.24;71.12
4576;BME280;2300;51.874;8.430;2023-06-26T08:13:35;100516.59;;;24.13;71.37
4576;BME280;2300;51.874;8.430;2023-06-26T08:16:02;100452.13;;;23.73;72.12
4576;BME280;2300;51.874;8.430;2023-06-26T08:18:31;100499.50;;;23.83;72.82
4576;BME280;2300;51.874;8.430;2023-06-26T08:20:58;100510.97;;;23.65;73.93
4576;BME280;2300;51.874;8.430;2023-06-26T08:23:25;100534.91;;;23.71;75.44
4576;BME280;2300;51.874;8.430;2023-06-26T08:25:52;100457.94;;;23.37;75.80
4576;BME280;2300;51.874;8.430;2023-06-26T08:28:23;100516.97;;;23.41;74.21
4576;BME280;2300;51.874;8.430;2023-06-26T08:30:50;100496.97;;;23.34;74.39
4576;BME280;2300;51.874;8.430;2023-06-26T08:33:18;100531.34;;;23.87;73.88
4576;BME280;2300;51.874;8.430;2023-06-26T08:35:46;100490.88;;;23.71;73.45
4576;BME280;2300;51.874;8.430;2023-06-26T08:38:13;100529.81;;;24.38;73.93
4576;BME280;2300;51.874;8.430;2023-06-26T08:40:40;100507.03;;;24.83;72.81
4576;BME280;2300;51.874;8.430;2023-06-26T08:43:07;100481.88;;;25.21;70.98
4576;BME280;2300;51.874;8.430;2023-06-26T08:45:34;100504.59;;;25.45;69.75
4576;BME280;2300;51.874;8.430;2023-06-26T08:48:02;100516.97;;;25.90;68.37
4576;BME280;2300;51.874;8.430;2023-06-26T08:50:30;100523.09;;;26.01;69.24
4576;BME280;2300;51.874;8.430;2023-06-26T08:53:04;100474.88;;;26.11;67.52
4576;BME280;2300;51.874;8.430;2023-06-26T08:55:33;100540.06;;;26.55;67.55
4576;BME280;2300;51.874;8.430;2023-06-26T08:58:02;100541.41;;;26.78;66.47
4576;BME280;2300;51.874;8.430;2023-06-26T09:00:29;100544.44;;;26.73;66.45
4576;BME280;2300;51.874;8.430;2023-06-26T09:02:57;100548.84;;;26.53;66.08
4576;BME280;2300;51.874;8.430;2023-06-26T09:05:26;100562.78;;;26.50;67.09
4576;BME280;2300;51.874;8.430;2023-06-26T09:07:53;100557.56;;;26.39;67.50
4576;BME280;2300;51.874;8.430;2023-06-26T09:10:38;100553.66;;;25.65;67.90
4576;BME280;2300;51.874;8.430;2023-06-26T09:13:06;100537.69;;;25.39;69.93
4576;BME280;2300;51.874;8.430;2023-06-26T09:16:04;100563.28;;;25.46;69.43
4576;BME280;2300;51.874;8.430;2023-06-26T09:18:33;100568.56;;;25.56;70.33
4576;BME280;2300;51.874;8.430;2023-06-26T09:21:06;100566.06;;;25.64;69.60
4576;BME280;2300;51.874;8.430;2023-06-26T09:23:34;100566.44;;;25.45;70.00
4576;BME280;2300;51.874;8.430;2023-06-26T09:26:04;100567.34;;;25.66;69.98
4576;BME280;2300;51.874;8.430;2023-06-26T09:28:31;100545.91;;;26.00;69.20
4576;BME280;2300;51.874;8.430;2023-06-26T09:31:01;100557.63;;;26.02;67.88
4576;BME280;2300;51.874;8.430;2023-06-26T09:33:33;100554.53;;;26.24;68.21
4576;BME280;2300;51.874;8.430;2023-06-26T09:36:01;100554.22;;;25.49;68.15
4576;BME280;2300;51.874;8.430;2023-06-26T09:38:28;100484.75;;;25.50;69.64
4576;BME280;2300;51.874;8.430;2023-06-26T09:40:54;100567.84;;;26.15;68.73
4576;BME280;2300;51.874;8.430;2023-06-26T09:43:23;100578.03;;;26.49;67.33
4576;BME280;2300;51.874;8.430;2023-06-26T09:45:51;100548.91;;;26.24;66.14
4576;BME280;2300;51.874;8.430;2023-06-26T09:48:19;100549.19;;;26.31;66.25
4576;BME280;2300;51.874;8.430;2023-06-26T09:50:46;100568.16;;;26.13;67.18
4576;BME280;2300;51.874;8.430;2023-06-26T09:53:13;100565.81;;;26.45;68.47
4576;BME280;2300;51.874;8.430;2023-06-26T09:55:40;100572.09;;;26.71;67.36
4576;BME280;2300;51.874;8.430;2023-06-26T09:58:10;100576.34;;;27.51;68.49
4576;BME280;2300;51.874;8.430;2023-06-26T10:00:42;100566.84;;;27.56;64.89
4576;BME280;2300;51.874;8.430;2023-06-26T10:03:10;100547.25;;;27.27;65.97
4576;BME280;2300;51.874;8.430;2023-06-26T10:05:37;100565.38;;;27.38;66.11
4576;BME280;2300;51.874;8.430;2023-06-26T10:08:05;100543.94;;;27.70;65.19
4576;BME280;2300;51.874;8.430;2023-06-26T10:10:33;100543.16;;;28.18;63.87
4576;BME280;2300;51.874;8.430;2023-06-26T10:13:05;100553.94;;;28.28;61.13
4576;BME280;2300;51.874;8.430;2023-06-26T10:15:36;100554.84;;;28.56;62.78
4576;BME280;2300;51.874;8.430;2023-06-26T10:18:05;100569.00;;;28.20;61.48
4576;BME280;2300;51.874;8.430;2023-06-26T10:20:32;100564.41;;;27.34;61.26
4576;BME280;2300;51.874;8.430;2023-06-26T10:23:00;100558.16;;;25.95;64.42
4576;BME280;2300;51.874;8.430;2023-06-26T10:25:32;100549.44;;;25.41;65.63
4576;BME280;2300;51.874;8.430;2023-06-26T10:28:00;100557.34;;;25.31;67.03
4576;BME280;2300;51.874;8.430;2023-06-26T10:30:30;100564.84;;;25.09;68.21
4576;BME280;2300;51.874;8.430;2023-06-26T10:32:59;100570.09;;;25.37;70.55
4576;BME280;2300;51.874;8.430;2023-06-26T10:35:30;100570.13;;;26.21;70.92
4576;BME280;2300;51.874;8.430;2023-06-26T10:38:01;100571.03;;;26.55;65.44
4576;BME280;2300;51.874;8.430;2023-06-26T10:40:40;100576.16;;;26.82;66.23
4576;BME280;2300;51.874;8.430;2023-06-26T10:43:07;100572.03;;;27.33;66.97
4576;BME280;2300;51.874;8.430;2023-06-26T10:45:35;100531.66;;;26.75;64.29
4576;BME280;2300;51.874;8.430;2023-06-26T10:48:03;100559.63;;;26.30;64.81
4576;BME280;2300;51.874;8.430;2023-06-26T10:50:32;100586.09;;;25.91;65.08
4576;BME280;2300;51.874;8.430;2023-06-26T10:53:08;100585.47;;;25.22;67.49
4576;BME280;2300;51.874;8.430;2023-06-26T10:55:36;100595.91;;;25.04;67.11
4576;BME280;2300;51.874;8.430;2023-06-26T10:58:04;100590.41;;;24.56;67.19
4576;BME280;2300;51.874;8.430;2023-06-26T11:01:18;100587.28;;;24.66;67.60
4576;BME280;2300;51.874;8.430;2023-06-26T11:03:46;100600.69;;;25.04;67.64
4576;BME280;2300;51.874;8.430;2023-06-26T11:06:18;100568.59;;;25.39;65.66
4576;BME280;2300;51.874;8.430;2023-06-26T11:08:45;100588.75;;;26.05;63.20
4576;BME280;2300;51.874;8.430;2023-06-26T11:11:12;100596.69;;;26.53;63.34
4576;BME280;2300;51.874;8.430;2023-06-26T11:13:39;100604.44;;;27.06;64.56
4576;BME280;2300;51.874;8.430;2023-06-26T11:16:06;100590.97;;;26.91;62.31
4576;BME280;2300;51.874;8.430;2023-06-26T11:18:33;100610.28;;;27.01;61.43
4576;BME280;2300;51.874;8.430;2023-06-26T11:21:06;100597.50;;;26.33;60.27
4576;BME280;2300;51.874;8.430;2023-06-26T11:23:36;100607.84;;;25.74;61.63
4576;BME280;2300;51.874;8.430;2023-06-26T11:26:13;100602.16;;;25.19;62.42
4576;BME280;2300;51.874;8.430;2023-06-26T11:28:46;100566.50;;;25.02;62.70
4576;BME280;2300;51.874;8.430;2023-06-26T11:31:24;100610.25;;;25.20;63.02
4576;BME280;2300;51.874;8.430;2023-06-26T11:33:51;100599.97;;;25.59;64.82
4576;BME280;2300;51.874;8.430;2023-06-26T11:36:17;100611.25;;;26.34;62.29
4576;BME280;2300;51.874;8.430;2023-06-26T11:38:45;100592.00;;;26.66;62.12
4576;BME280;2300;51.874;8.430;2023-06-26T11:41:16;100611.84;;;27.11;60.77
4576;BME280;2300;51.874;8.430;2023-06-26T11:43:45;100618.03;;;27.46;60.37
4576;BME280;2300;51.874;8.430;2023-06-26T11:46:12;100584.66;;;27.48;59.44
4576;BME280;2300;51.874;8.430;2023-06-26T11:48:39;100617.72;;;27.72;57.10
4576;BME280;2300;51.874;8.430;2023-06-26T11:51:06;100620.78;;;27.34;55.27
4576;BME280;2300;51.874;8.430;2023-06-26T11:53:39;100571.19;;;26.58;56.92
4576;BME280;2300;51.874;8.430;2023-06-26T11:56:13;100614.25;;;27.00;57.32
4576;BME280;2300;51.874;8.430;2023-06-26T11:58:56;100644.50;;;26.91;56.76
4576;BME280;2300;51.874;8.430;2023-06-26T12:01:24;100588.50;;;26.69;55.40
4576;BME280;2300;51.874;8.430;2023-06-26T12:03:54;100628.22;;;26.76;54.62
4576;BME280;2300;51.874;8.430;2023-06-26T12:06:21;100598.91;;;26.18;55.25
4576;BME280;2300;51.874;8.430;2023-06-26T12:08:48;100604.44;;;26.35;54.81
4576;BME280;2300;51.874;8.430;2023-06-26T12:11:17;100553.88;;;26.48;54.66
4576;BME280;2300;51.874;8.430;2023-06-26T12:13:45;100601.06;;;27.13;53.57
4576;BME280;2300;51.874;8.430;2023-06-26T12:16:14;100597.28;;;27.09;55.00
4576;BME280;2300;51.874;8.430;2023-06-26T12:18:41;100638.97;;;27.69;56.05
4576;BME280;2300;51.874;8.430;2023-06-26T12:21:09;100640.38;;;27.63;52.88
4576;BME280;2300;51.874;8.430;2023-06-26T12:23:58;100612.81;;;26.44;53.93
4576;BME280;2300;51.874;8.430;2023-06-26T12:26:27;100592.59;;;26.51;55.21
4576;BME280;2300;51.874;8.430;2023-06-26T12:29:01;100632.47;;;26.82;56.51
4576;BME280;2300;51.874;8.430;2023-06-26T12:31:28;100570.03;;;26.80;54.48
4576;BME280;2300;51.874;8.430;2023-06-26T12:33:56;100541.97;;;26.71;52.71
4576;BME280;2300;51.874;8.430;2023-06-26T12:36:25;100603.19;;;26.95;53.86
4576;BME280;2300;51.874;8.430;2023-06-26T12:38:54;100654.19;;;27.02;54.26
4576;BME280;2300;51.874;8.430;2023-06-26T12:41:24;100641.53;;;27.08;54.47
4576;BME280;2300;51.874;8.430;2023-06-26T12:44:04;100591.47;;;26.72;53.63
4576;BME280;2300;51.874;8.430;2023-06-26T12:46:34;100620.59;;;26.47;53.74
4576;BME280;2300;51.874;8.430;2023-06-26T12:49:01;100633.66;;;26.52;52.93
4576;BME280;2300;51.874;8.430;2023-06-26T12:51:28;100649.66;;;26.01;54.86
4576;BME280;2300;51.874;8.430;2023-06-26T12:53:56;100601.72;;;25.80;56.09
4576;BME280;2300;51.874;8.430;2023-06-26T12:56:24;100652.38;;;26.18;56.91
4576;BME280;2300;51.874;8.430;2023-06-26T12:58:51;100631.28;;;25.95;55.05
4576;BME280;2300;51.874;8.430;2023-06-26T13:01:20;100655.19;;;26.18;56.45
4576;BME280;2300;51.874;8.430;2023-06-26T13:03:49;100639.22;;;25.93;56.15
4576;BME280;2300;51.874;8.430;2023-06-26T13:06:16;100633.41;;;25.98;56.64
4576;BME280;2300;51.874;8.430;2023-06-26T13:08:43;100647.66;;;25.93;54.95
4576;BME280;2300;51.874;8.430;2023-06-26T13:11:10;100632.28;;;25.90;55.32
4576;BME280;2300;51.874;8.430;2023-06-26T13:13:37;100662.84;;;26.38;56.59
4576;BME280;2300;51.874;8.430;2023-06-26T13:16:04;100665.91;;;26.63;54.57